Terminal Aerodrome Forecast
Issued by NWS Milwaukee/Sullivan, WI

Home | Current Version | Previous Version | Text Only | Print | Product List | Glossary On
Versions: 1 2 3 4 5 6 7 8 9 10 11 12 13 14 15 16 17 18 19 20 21 22 23 24 25 26 27 28 29 30 31 32 33 34 35 36 37 38 39 40 41 42 43 44 45 46 47 48 49 50
000
FTUS43 KMKX 160520
TAFMKE
TAF
KMKE 160520Z 1606/1712 03008KT P6SM VCSH OVC005
     FM160700 03008KT P6SM -SHRA BKN008 OVC012
      TEMPO 1607/1610 4SM SHRA
     FM161200 05007KT 6SM BR OVC005
     FM161500 06008KT P6SM OVC007
     FM162000 04009KT P6SM OVC012
     FM170000 03009KT P6SM BKN022
     FM170300 02005KT P6SM BKN035=

USA.gov is the U.S. government's official web portal to all federal, state and local government web resources and services.